sensor_id;sensor_type;location;lat;lon;timestamp;pressure;altitude;pressure_sealevel;temperature;humidity
63281;BME280;49406;51.044;3.766;2023-05-23T00:02:13;102153.02;;;13.18;100.00
63281;BME280;49406;51.044;3.766;2023-05-23T00:04:48;102159.06;;;13.22;100.00
63281;BME280;49406;51.044;3.766;2023-05-23T00:07:24;102159.33;;;13.26;100.00
63281;BME280;49406;51.044;3.766;2023-05-23T00:09:59;102161.70;;;13.31;100.00
63281;BME280;49406;51.044;3.766;2023-05-23T00:12:34;102158.23;;;13.34;100.00
63281;BME280;49406;51.044;3.766;2023-05-23T00:15:10;102160.21;;;13.37;100.00
63281;BME280;49406;51.044;3.766;2023-05-23T00:17:46;102165.88;;;13.39;100.00
63281;BME280;49406;51.044;3.766;2023-05-23T00:20:20;102164.81;;;13.38;100.00
63281;BME280;49406;51.044;3.766;2023-05-23T00:22:55;102168.89;;;13.41;100.00
63281;BME280;49406;51.044;3.766;2023-05-23T00:25:30;102164.71;;;13.43;100.00
63281;BME280;49406;51.044;3.766;2023-05-23T00:28:06;102169.10;;;13.42;100.00
63281;BME280;49406;51.044;3.766;2023-05-23T00:30:41;102166.36;;;13.46;100.00
63281;BME280;49406;51.044;3.766;2023-05-23T00:33:16;102168.70;;;13.49;100.00
63281;BME280;49406;51.044;3.766;2023-05-23T00:35:54;102168.73;;;13.51;100.00
63281;BME280;49406;51.044;3.766;2023-05-23T00:38:28;102172.71;;;13.48;100.00
63281;BME280;49406;51.044;3.766;2023-05-23T00:41:03;102180.42;;;13.47;100.00
63281;BME280;49406;51.044;3.766;2023-05-23T00:43:38;102178.27;;;13.43;100.00
63281;BME280;49406;51.044;3.766;2023-05-23T00:46:13;102182.95;;;13.41;100.00
63281;BME280;49406;51.044;3.766;2023-05-23T00:48:48;102181.83;;;13.38;100.00
63281;BME280;49406;51.044;3.766;2023-05-23T00:51:23;102185.88;;;13.38;100.00
63281;BME280;49406;51.044;3.766;2023-05-23T00:53:58;102185.71;;;13.38;100.00
63281;BME280;49406;51.044;3.766;2023-05-23T00:56:34;102185.20;;;13.39;100.00
63281;BME280;49406;51.044;3.766;2023-05-23T00:59:10;102182.02;;;13.38;100.00
63281;BME280;49406;51.044;3.766;2023-05-23T01:01:45;102186.41;;;13.39;100.00
63281;BME280;49406;51.044;3.766;2023-05-23T01:04:20;102186.38;;;13.36;100.00
63281;BME280;49406;51.044;3.766;2023-05-23T01:06:58;102187.27;;;13.37;100.00
63281;BME280;49406;51.044;3.766;2023-05-23T01:09:33;102185.52;;;13.38;100.00
63281;BME280;49406;51.044;3.766;2023-05-23T01:12:16;102183.79;;;13.39;100.00
63281;BME280;49406;51.044;3.766;2023-05-23T01:14:58;102191.35;;;13.39;100.00
63281;BME280;49406;51.044;3.766;2023-05-23T01:17:48;102190.29;;;13.39;100.00
63281;BME280;49406;51.044;3.766;2023-05-23T01:20:29;102187.47;;;13.38;100.00
63281;BME280;49406;51.044;3.766;2023-05-23T01:26:17;102189.95;;;13.40;100.00
63281;BME280;49406;51.044;3.766;2023-05-23T01:29:03;102185.23;;;13.41;100.00
63281;BME280;49406;51.044;3.766;2023-05-23T01:31:41;102189.46;;;13.42;100.00
63281;BME280;49406;51.044;3.766;2023-05-23T01:34:17;102192.33;;;13.44;100.00
63281;BME280;49406;51.044;3.766;2023-05-23T01:36:54;102196.42;;;13.47;100.00
63281;BME280;49406;51.044;3.766;2023-05-23T01:39:29;102191.84;;;13.47;100.00
63281;BME280;49406;51.044;3.766;2023-05-23T01:42:04;102196.30;;;13.50;100.00
63281;BME280;49406;51.044;3.766;2023-05-23T01:44:39;102194.57;;;13.52;100.00
63281;BME280;49406;51.044;3.766;2023-05-23T01:47:15;102196.54;;;13.54;100.00
63281;BME280;49406;51.044;3.766;2023-05-23T01:49:51;102197.79;;;13.56;100.00
63281;BME280;49406;51.044;3.766;2023-05-23T01:52:27;102197.98;;;13.57;100.00
63281;BME280;49406;51.044;3.766;2023-05-23T01:55:04;102197.45;;;13.57;100.00
63281;BME280;49406;51.044;3.766;2023-05-23T01:57:42;102199.56;;;13.57;100.00
63281;BME280;49406;51.044;3.766;2023-05-23T02:00:18;102204.85;;;13.58;100.00
63281;BME280;49406;51.044;3.766;2023-05-23T02:02:53;102199.26;;;13.60;100.00
63281;BME280;49406;51.044;3.766;2023-05-23T02:05:27;102199.05;;;13.59;100.00
63281;BME280;49406;51.044;3.766;2023-05-23T02:08:02;102203.05;;;13.55;100.00
63281;BME280;49406;51.044;3.766;2023-05-23T02:10:37;102207.65;;;13.57;100.00
63281;BME280;49406;51.044;3.766;2023-05-23T02:13:11;102208.90;;;13.58;100.00
63281;BME280;49406;51.044;3.766;2023-05-23T02:15:46;102212.42;;;13.59;100.00
63281;BME280;49406;51.044;3.766;2023-05-23T02:18:21;102214.52;;;13.58;100.00
63281;BME280;49406;51.044;3.766;2023-05-23T02:20:58;102214.44;;;13.53;100.00
63281;BME280;49406;51.044;3.766;2023-05-23T02:23:33;102218.77;;;13.49;100.00
63281;BME280;49406;51.044;3.766;2023-05-23T02:26:07;102218.64;;;13.52;100.00
63281;BME280;49406;51.044;3.766;2023-05-23T02:28:42;102219.38;;;13.54;100.00
63281;BME280;49406;51.044;3.766;2023-05-23T02:31:16;102221.09;;;13.51;100.00
63281;BME280;49406;51.044;3.766;2023-05-23T02:33:51;102221.19;;;13.47;100.00
63281;BME280;49406;51.044;3.766;2023-05-23T02:36:26;102225.02;;;13.45;100.00
63281;BME280;49406;51.044;3.766;2023-05-23T02:39:00;102226.95;;;13.44;100.00
63281;BME280;49406;51.044;3.766;2023-05-23T02:41:35;102226.24;;;13.44;100.00
63281;BME280;49406;51.044;3.766;2023-05-23T02:44:09;102230.08;;;13.43;100.00
63281;BME280;49406;51.044;3.766;2023-05-23T02:46:44;102234.67;;;13.44;100.00
63281;BME280;49406;51.044;3.766;2023-05-23T02:49:19;102234.32;;;13.44;100.00
63281;BME280;49406;51.044;3.766;2023-05-23T02:51:53;102239.27;;;13.45;100.00
63281;BME280;49406;51.044;3.766;2023-05-23T02:54:28;102236.98;;;13.45;100.00
63281;BME280;49406;51.044;3.766;2023-05-23T02:57:03;102237.70;;;13.47;100.00
63281;BME280;49406;51.044;3.766;2023-05-23T02:59:37;102236.71;;;13.50;100.00
63281;BME280;49406;51.044;3.766;2023-05-23T03:02:11;102239.92;;;13.53;100.00
63281;BME280;49406;51.044;3.766;2023-05-23T03:04:46;102243.41;;;13.51;100.00
63281;BME280;49406;51.044;3.766;2023-05-23T03:07:21;102244.13;;;13.53;100.00
63281;BME280;49406;51.044;3.766;2023-05-23T03:09:56;102239.28;;;13.58;100.00
63281;BME280;49406;51.044;3.766;2023-05-23T03:12:30;102239.92;;;13.54;100.00
63281;BME280;49406;51.044;3.766;2023-05-23T03:15:07;102236.63;;;13.55;100.00
63281;BME280;49406;51.044;3.766;2023-05-23T03:17:41;102236.98;;;13.57;100.00
63281;BME280;49406;51.044;3.766;2023-05-23T03:20:14;102231.35;;;13.56;100.00
63281;BME280;49406;51.044;3.766;2023-05-23T03:22:49;102233.13;;;13.57;100.00
63281;BME280;49406;51.044;3.766;2023-05-23T03:25:23;102229.30;;;13.59;100.00
63281;BME280;49406;51.044;3.766;2023-05-23T03:27:58;102230.05;;;13.61;100.00
63281;BME280;49406;51.044;3.766;2023-05-23T03:30:33;102233.05;;;13.62;100.00
63281;BME280;49406;51.044;3.766;2023-05-23T03:33:07;102239.48;;;13.58;100.00
63281;BME280;49406;51.044;3.766;2023-05-23T03:35:42;102241.89;;;13.55;100.00
63281;BME280;49406;51.044;3.766;2023-05-23T03:38:17;102246.40;;;13.61;100.00
63281;BME280;49406;51.044;3.766;2023-05-23T03:40:51;102248.83;;;13.60;100.00
63281;BME280;49406;51.044;3.766;2023-05-23T03:43:26;102245.33;;;13.60;100.00
63281;BME280;49406;51.044;3.766;2023-05-23T03:46:00;102243.56;;;13.60;100.00
63281;BME280;49406;51.044;3.766;2023-05-23T03:48:35;102246.91;;;13.61;100.00
63281;BME280;49406;51.044;3.766;2023-05-23T03:51:10;102255.09;;;13.57;100.00
63281;BME280;49406;51.044;3.766;2023-05-23T03:53:45;102260.71;;;13.57;100.00
63281;BME280;49406;51.044;3.766;2023-05-23T03:56:20;102264.49;;;13.52;100.00
63281;BME280;49406;51.044;3.766;2023-05-23T03:58:55;102266.90;;;13.48;100.00
63281;BME280;49406;51.044;3.766;2023-05-23T04:01:29;102272.14;;;13.46;100.00
63281;BME280;49406;51.044;3.766;2023-05-23T04:04:04;102273.03;;;13.47;100.00
63281;BME280;49406;51.044;3.766;2023-05-23T04:06:38;102276.02;;;13.47;100.00
63281;BME280;49406;51.044;3.766;2023-05-23T04:09:13;102279.39;;;13.41;100.00
63281;BME280;49406;51.044;3.766;2023-05-23T04:11:48;102277.79;;;13.40;100.00
63281;BME280;49406;51.044;3.766;2023-05-23T04:14:23;102278.58;;;13.44;100.00
63281;BME280;49406;51.044;3.766;2023-05-23T04:16:57;102283.77;;;13.41;100.00
63281;BME280;49406;51.044;3.766;2023-05-23T04:19:33;102281.41;;;13.36;100.00
63281;BME280;49406;51.044;3.766;2023-05-23T04:22:07;102278.03;;;13.34;100.00
63281;BME280;49406;51.044;3.766;2023-05-23T04:24:42;102279.26;;;13.34;100.00
63281;BME280;49406;51.044;3.766;2023-05-23T04:27:17;102283.09;;;13.31;100.00
63281;BME280;49406;51.044;3.766;2023-05-23T04:29:51;102279.18;;;13.30;100.00
63281;BME280;49406;51.044;3.766;2023-05-23T04:32:26;102280.05;;;13.29;100.00
63281;BME280;49406;51.044;3.766;2023-05-23T04:35:01;102271.39;;;13.19;100.00
63281;BME280;49406;51.044;3.766;2023-05-23T04:37:36;102285.27;;;13.18;100.00
63281;BME280;49406;51.044;3.766;2023-05-23T04:40:12;102282.21;;;13.24;100.00
63281;BME280;49406;51.044;3.766;2023-05-23T04:42:49;102286.13;;;13.26;100.00
63281;BME280;49406;51.044;3.766;2023-05-23T04:45:24;102297.05;;;13.28;100.00
63281;BME280;49406;51.044;3.766;2023-05-23T04:47:59;102292.63;;;13.27;100.00
63281;BME280;49406;51.044;3.766;2023-05-23T04:50:34;102296.14;;;13.26;100.00
63281;BME280;49406;51.044;3.766;2023-05-23T04:53:10;102296.23;;;13.30;100.00
63281;BME280;49406;51.044;3.766;2023-05-23T04:55:44;102297.19;;;13.26;100.00
63281;BME280;49406;51.044;3.766;2023-05-23T04:58:19;102294.66;;;13.23;100.00
63281;BME280;49406;51.044;3.766;2023-05-23T05:00:54;102299.69;;;13.28;100.00
63281;BME280;49406;51.044;3.766;2023-05-23T05:03:28;102303.76;;;13.29;100.00
63281;BME280;49406;51.044;3.766;2023-05-23T05:06:04;102306.17;;;13.27;100.00
63281;BME280;49406;51.044;3.766;2023-05-23T05:08:39;102311.27;;;13.27;100.00
63281;BME280;49406;51.044;3.766;2023-05-23T05:11:13;102312.45;;;13.25;100.00
63281;BME280;49406;51.044;3.766;2023-05-23T05:13:48;102311.95;;;13.18;100.00
63281;BME280;49406;51.044;3.766;2023-05-23T05:16:23;102315.13;;;13.19;100.00
63281;BME280;49406;51.044;3.766;2023-05-23T05:18:57;102322.00;;;13.19;100.00
63281;BME280;49406;51.044;3.766;2023-05-23T05:21:32;102323.62;;;13.14;100.00
63281;BME280;49406;51.044;3.766;2023-05-23T05:24:07;102331.48;;;13.13;100.00
63281;BME280;49406;51.044;3.766;2023-05-23T05:26:43;102338.08;;;13.09;100.00
63281;BME280;49406;51.044;3.766;2023-05-23T05:29:18;102341.80;;;13.03;100.00
63281;BME280;49406;51.044;3.766;2023-05-23T05:31:52;102340.64;;;12.99;100.00
63281;BME280;49406;51.044;3.766;2023-05-23T05:34:27;102348.75;;;13.08;100.00
63281;BME280;49406;51.044;3.766;2023-05-23T05:37:02;102346.23;;;13.05;100.00
63281;BME280;49406;51.044;3.766;2023-05-23T05:39:36;102348.11;;;13.03;100.00
63281;BME280;49406;51.044;3.766;2023-05-23T05:42:11;102357.33;;;12.99;100.00
63281;BME280;49406;51.044;3.766;2023-05-23T05:44:45;102349.57;;;12.97;100.00
63281;BME280;49406;51.044;3.766;2023-05-23T05:47:20;102357.21;;;13.09;100.00
63281;BME280;49406;51.044;3.766;2023-05-23T05:49:55;102364.41;;;13.16;100.00
63281;BME280;49406;51.044;3.766;2023-05-23T05:52:29;102371.30;;;13.18;100.00
63281;BME280;49406;51.044;3.766;2023-05-23T05:55:05;102369.91;;;13.18;100.00
63281;BME280;49406;51.044;3.766;2023-05-23T05:57:40;102374.14;;;13.20;100.00
63281;BME280;49406;51.044;3.766;2023-05-23T06:00:16;102379.52;;;13.32;100.00
63281;BME280;49406;51.044;3.766;2023-05-23T06:02:51;102377.17;;;13.29;100.00
63281;BME280;49406;51.044;3.766;2023-05-23T06:05:29;102380.48;;;13.27;100.00
63281;BME280;49406;51.044;3.766;2023-05-23T06:08:04;102382.95;;;13.28;100.00
63281;BME280;49406;51.044;3.766;2023-05-23T06:10:39;102385.77;;;13.37;100.00
63281;BME280;49406;51.044;3.766;2023-05-23T06:13:14;102385.67;;;13.41;100.00
63281;BME280;49406;51.044;3.766;2023-05-23T06:15:48;102388.86;;;13.42;100.00
63281;BME280;49406;51.044;3.766;2023-05-23T06:18:23;102392.55;;;13.42;100.00
63281;BME280;49406;51.044;3.766;2023-05-23T06:20:57;102395.09;;;13.45;100.00
63281;BME280;49406;51.044;3.766;2023-05-23T06:23:32;102399.31;;;13.54;100.00
63281;BME280;49406;51.044;3.766;2023-05-23T06:26:07;102402.59;;;13.51;100.00
63281;BME280;49406;51.044;3.766;2023-05-23T06:28:43;102406.44;;;13.42;100.00
63281;BME280;49406;51.044;3.766;2023-05-23T06:31:17;102401.75;;;13.44;100.00
63281;BME280;49406;51.044;3.766;2023-05-23T06:33:52;102404.48;;;13.48;100.00
63281;BME280;49406;51.044;3.766;2023-05-23T06:36:26;102402.52;;;13.57;100.00
63281;BME280;49406;51.044;3.766;2023-05-23T06:39:01;102411.40;;;13.61;100.00
63281;BME280;49406;51.044;3.766;2023-05-23T06:41:37;102407.70;;;13.60;100.00
63281;BME280;49406;51.044;3.766;2023-05-23T06:44:12;102410.20;;;13.53;100.00
63281;BME280;49406;51.044;3.766;2023-05-23T06:46:47;102414.17;;;13.50;100.00
63281;BME280;49406;51.044;3.766;2023-05-23T06:49:21;102417.27;;;13.55;100.00
63281;BME280;49406;51.044;3.766;2023-05-23T06:51:56;102417.84;;;13.66;100.00
63281;BME280;49406;51.044;3.766;2023-05-23T06:54:30;102422.35;;;13.63;100.00
63281;BME280;49406;51.044;3.766;2023-05-23T06:57:05;102422.48;;;13.61;100.00
63281;BME280;49406;51.044;3.766;2023-05-23T06:59:40;102423.20;;;13.61;100.00
63281;BME280;49406;51.044;3.766;2023-05-23T07:02:15;102423.91;;;13.61;100.00
63281;BME280;49406;51.044;3.766;2023-05-23T07:04:48;102426.41;;;13.64;100.00
63281;BME280;49406;51.044;3.766;2023-05-23T07:07:22;102438.66;;;13.62;100.00
63281;BME280;49406;51.044;3.766;2023-05-23T07:09:57;102439.19;;;13.62;100.00
63281;BME280;49406;51.044;3.766;2023-05-23T07:12:32;102443.23;;;13.61;100.00
63281;BME280;49406;51.044;3.766;2023-05-23T07:15:08;102444.45;;;13.53;100.00
63281;BME280;49406;51.044;3.766;2023-05-23T07:17:43;102442.83;;;13.51;100.00
63281;BME280;49406;51.044;3.766;2023-05-23T07:20:18;102448.23;;;13.41;100.00
63281;BME280;49406;51.044;3.766;2023-05-23T07:22:52;102452.76;;;13.31;100.00
63281;BME280;49406;51.044;3.766;2023-05-23T07:25:27;102456.30;;;13.26;100.00
63281;BME280;49406;51.044;3.766;2023-05-23T07:28:01;102455.77;;;13.25;100.00
63281;BME280;49406;51.044;3.766;2023-05-23T07:30:36;102455.92;;;13.31;100.00
63281;BME280;49406;51.044;3.766;2023-05-23T07:33:11;102456.77;;;13.30;100.00
63281;BME280;49406;51.044;3.766;2023-05-23T07:35:46;102453.26;;;13.23;100.00
63281;BME280;49406;51.044;3.766;2023-05-23T07:38:21;102448.02;;;13.17;100.00
63281;BME280;49406;51.044;3.766;2023-05-23T07:40:55;102453.70;;;13.27;100.00
63281;BME280;49406;51.044;3.766;2023-05-23T07:43:30;102447.24;;;13.36;100.00
63281;BME280;49406;51.044;3.766;2023-05-23T07:46:04;102452.13;;;13.34;100.00
63281;BME280;49406;51.044;3.766;2023-05-23T07:48:39;102454.59;;;13.27;100.00
63281;BME280;49406;51.044;3.766;2023-05-23T07:51:14;102451.55;;;13.25;100.00
63281;BME280;49406;51.044;3.766;2023-05-23T07:53:53;102453.55;;;13.35;100.00
63281;BME280;49406;51.044;3.766;2023-05-23T07:56:28;102448.39;;;13.40;100.00
63281;BME280;49406;51.044;3.766;2023-05-23T07:59:03;102449.59;;;13.46;100.00
63281;BME280;49406;51.044;3.766;2023-05-23T08:01:37;102453.67;;;13.48;100.00
63281;BME280;49406;51.044;3.766;2023-05-23T08:04:12;102454.40;;;13.49;100.00
63281;BME280;49406;51.044;3.766;2023-05-23T08:06:47;102456.65;;;13.48;100.00
63281;BME280;49406;51.044;3.766;2023-05-23T08:09:21;102464.58;;;13.49;100.00
63281;BME280;49406;51.044;3.766;2023-05-23T08:11:56;102459.45;;;13.41;100.00
63281;BME280;49406;51.044;3.766;2023-05-23T08:14:31;102461.33;;;13.38;100.00
63281;BME280;49406;51.044;3.766;2023-05-23T08:17:05;102459.18;;;13.43;100.00
63281;BME280;49406;51.044;3.766;2023-05-23T08:19:40;102459.77;;;13.55;100.00
63281;BME280;49406;51.044;3.766;2023-05-23T08:22:16;102460.64;;;13.62;100.00
63281;BME280;49406;51.044;3.766;2023-05-23T08:24:49;102467.45;;;13.61;100.00
63281;BME280;49406;51.044;3.766;2023-05-23T08:27:23;102467.73;;;13.65;100.00
63281;BME280;49406;51.044;3.766;2023-05-23T08:29:58;102471.98;;;13.67;100.00
63281;BME280;49406;51.044;3.766;2023-05-23T08:32:32;102467.08;;;13.67;100.00
63281;BME280;49406;51.044;3.766;2023-05-23T08:35:08;102466.77;;;13.69;100.00
63281;BME280;49406;51.044;3.766;2023-05-23T08:37:43;102469.45;;;13.72;100.00
63281;BME280;49406;51.044;3.766;2023-05-23T08:40:21;102465.04;;;13.71;100.00
63281;BME280;49406;51.044;3.766;2023-05-23T08:42:54;102473.30;;;13.79;100.00
63281;BME280;49406;51.044;3.766;2023-05-23T08:45:29;102475.48;;;13.81;100.00
63281;BME280;49406;51.044;3.766;2023-05-23T08:48:07;102472.92;;;13.77;100.00
63281;BME280;49406;51.044;3.766;2023-05-23T08:50:44;102477.40;;;13.91;100.00
63281;BME280;49406;51.044;3.766;2023-05-23T08:53:21;102478.61;;;13.98;100.00
63281;BME280;49406;51.044;3.766;2023-05-23T08:55:56;102478.15;;;14.01;100.00
63281;BME280;49406;51.044;3.766;2023-05-23T08:58:35;102480.52;;;14.14;100.00
63281;BME280;49406;51.044;3.766;2023-05-23T09:01:11;102483.84;;;14.40;100.00
63281;BME280;49406;51.044;3.766;2023-05-23T09:03:46;102476.05;;;14.65;100.00
63281;BME280;49406;51.044;3.766;2023-05-23T09:06:22;102473.09;;;14.78;99.97
63281;BME280;49406;51.044;3.766;2023-05-23T09:08:57;102477.37;;;14.81;99.94
63281;BME280;49406;51.044;3.766;2023-05-23T09:11:32;102479.23;;;14.77;98.70
63281;BME280;49406;51.044;3.766;2023-05-23T09:14:07;102482.30;;;14.71;98.82
63281;BME280;49406;51.044;3.766;2023-05-23T09:16:42;102480.63;;;14.77;99.48
63281;BME280;49406;51.044;3.766;2023-05-23T09:19:19;102478.96;;;14.81;98.40
63281;BME280;49406;51.044;3.766;2023-05-23T09:21:55;102482.05;;;14.87;98.45
63281;BME280;49406;51.044;3.766;2023-05-23T09:24:35;102482.83;;;14.81;96.90
63281;BME280;49406;51.044;3.766;2023-05-23T09:27:10;102480.00;;;14.91;96.43
63281;BME280;49406;51.044;3.766;2023-05-23T09:29:45;102485.04;;;14.97;94.66
63281;BME280;49406;51.044;3.766;2023-05-23T09:32:21;102487.77;;;14.93;92.86
63281;BME280;49406;51.044;3.766;2023-05-23T09:34:59;102484.00;;;14.88;92.67
63281;BME280;49406;51.044;3.766;2023-05-23T09:37:38;102483.65;;;14.89;91.99
63281;BME280;49406;51.044;3.766;2023-05-23T09:40:14;102480.35;;;15.01;91.69
63281;BME280;49406;51.044;3.766;2023-05-23T09:42:49;102488.73;;;15.19;90.81
63281;BME280;49406;51.044;3.766;2023-05-23T09:45:30;102491.92;;;15.32;90.39
63281;BME280;49406;51.044;3.766;2023-05-23T09:48:06;102496.00;;;15.58;90.87
63281;BME280;49406;51.044;3.766;2023-05-23T09:50:46;102498.52;;;15.86;88.99
63281;BME280;49406;51.044;3.766;2023-05-23T09:53:23;102499.65;;;15.93;85.89
63281;BME280;49406;51.044;3.766;2023-05-23T09:55:59;102503.69;;;15.91;84.84
63281;BME280;49406;51.044;3.766;2023-05-23T09:58:35;102501.28;;;15.81;84.13
63281;BME280;49406;51.044;3.766;2023-05-23T10:01:12;102499.70;;;15.81;85.12
63281;BME280;49406;51.044;3.766;2023-05-23T10:03:49;102506.98;;;15.86;80.82
63281;BME280;49406;51.044;3.766;2023-05-23T10:06:29;102507.00;;;15.87;78.26
63281;BME280;49406;51.044;3.766;2023-05-23T10:09:06;102506.56;;;15.95;78.15
63281;BME280;49406;51.044;3.766;2023-05-23T10:12:33;102507.64;;;16.26;77.52
63281;BME280;49406;51.044;3.766;2023-05-23T10:15:12;102507.34;;;16.64;73.90
63281;BME280;49406;51.044;3.766;2023-05-23T10:17:55;102500.42;;;17.21;74.41
63281;BME280;49406;51.044;3.766;2023-05-23T10:20:32;102496.09;;;17.61;73.21
63281;BME280;49406;51.044;3.766;2023-05-23T10:23:08;102498.31;;;17.78;72.29
63281;BME280;49406;51.044;3.766;2023-05-23T10:25:44;102495.77;;;17.72;69.89
63281;BME280;49406;51.044;3.766;2023-05-23T10:28:20;102502.98;;;17.34;70.85
63281;BME280;49406;51.044;3.766;2023-05-23T10:30:55;102508.57;;;17.00;72.04
63281;BME280;49406;51.044;3.766;2023-05-23T10:33:31;102506.21;;;16.94;71.80
63281;BME280;49406;51.044;3.766;2023-05-23T10:36:11;102502.55;;;17.22;72.59
63281;BME280;49406;51.044;3.766;2023-05-23T10:38:54;102501.09;;;17.41;70.77
63281;BME280;49406;51.044;3.766;2023-05-23T10:41:40;102505.23;;;17.84;69.83
63281;BME280;49406;51.044;3.766;2023-05-23T10:44:19;102504.27;;;18.04;67.84
63281;BME280;49406;51.044;3.766;2023-05-23T10:46:57;102499.31;;;18.05;66.99
63281;BME280;49406;51.044;3.766;2023-05-23T10:49:41;102510.00;;;18.27;65.41
63281;BME280;49406;51.044;3.766;2023-05-23T10:52:17;102512.46;;;18.24;64.66
63281;BME280;49406;51.044;3.766;2023-05-23T10:54:53;102513.29;;;18.04;65.18
63281;BME280;49406;51.044;3.766;2023-05-23T10:57:28;102514.52;;;17.67;66.31
63281;BME280;49406;51.044;3.766;2023-05-23T11:00:03;102510.06;;;17.35;67.24
63281;BME280;49406;51.044;3.766;2023-05-23T11:02:38;102506.08;;;17.48;67.30
63281;BME280;49406;51.044;3.766;2023-05-23T11:05:21;102512.23;;;17.68;65.85
63281;BME280;49406;51.044;3.766;2023-05-23T11:08:10;102508.19;;;17.73;66.04
63281;BME280;49406;51.044;3.766;2023-05-23T11:10:57;102508.80;;;17.89;65.11
63281;BME280;49406;51.044;3.766;2023-05-23T11:16:43;102509.81;;;17.49;65.15
63281;BME280;49406;51.044;3.766;2023-05-23T11:19:26;102513.00;;;17.51;66.52
63281;BME280;49406;51.044;3.766;2023-05-23T11:22:02;102511.97;;;17.59;65.58
63281;BME280;49406;51.044;3.766;2023-05-23T11:24:51;102516.39;;;17.60;65.96
63281;BME280;49406;51.044;3.766;2023-05-23T11:27:31;102520.98;;;17.59;65.05
63281;BME280;49406;51.044;3.766;2023-05-23T11:30:08;102521.84;;;17.80;64.82
63281;BME280;49406;51.044;3.766;2023-05-23T11:32:51;102523.44;;;17.80;63.14
63281;BME280;49406;51.044;3.766;2023-05-23T11:35:27;102521.09;;;18.09;63.93
63281;BME280;49406;51.044;3.766;2023-05-23T11:38:04;102518.58;;;18.54;63.23
63281;BME280;49406;51.044;3.766;2023-05-23T11:40:40;102525.73;;;18.83;60.00
63281;BME280;49406;51.044;3.766;2023-05-23T11:43:16;102528.66;;;18.57;59.95
63281;BME280;49406;51.044;3.766;2023-05-23T11:45:51;102521.80;;;18.68;60.27
63281;BME280;49406;51.044;3.766;2023-05-23T11:48:26;102522.16;;;18.69;60.97
63281;BME280;49406;51.044;3.766;2023-05-23T11:51:02;102526.36;;;18.60;61.35
63281;BME280;49406;51.044;3.766;2023-05-23T11:53:37;102527.42;;;18.55;62.20
63281;BME280;49406;51.044;3.766;2023-05-23T11:56:13;102527.77;;;18.50;62.14
63281;BME280;49406;51.044;3.766;2023-05-23T11:58:48;102526.34;;;18.46;61.63
63281;BME280;49406;51.044;3.766;2023-05-23T12:01:29;102527.70;;;18.24;62.21
63281;BME280;49406;51.044;3.766;2023-05-23T12:04:09;102536.45;;;17.97;61.94
63281;BME280;49406;51.044;3.766;2023-05-23T12:06:47;102533.15;;;18.12;61.42
63281;BME280;49406;51.044;3.766;2023-05-23T12:09:21;102525.73;;;18.21;62.08
63281;BME280;49406;51.044;3.766;2023-05-23T12:11:56;102521.38;;;18.43;62.93
63281;BME280;49406;51.044;3.766;2023-05-23T12:14:31;102520.69;;;18.55;62.37
63281;BME280;49406;51.044;3.766;2023-05-23T12:17:07;102518.91;;;18.50;63.01
63281;BME280;49406;51.044;3.766;2023-05-23T12:19:46;102520.20;;;18.61;62.86
63281;BME280;49406;51.044;3.766;2023-05-23T12:22:24;102525.00;;;18.73;61.52
63281;BME280;49406;51.044;3.766;2023-05-23T12:24:59;102528.73;;;18.82;60.55
63281;BME280;49406;51.044;3.766;2023-05-23T12:27:34;102529.80;;;19.05;60.87
63281;BME280;49406;51.044;3.766;2023-05-23T12:30:12;102527.14;;;19.27;60.32
63281;BME280;49406;51.044;3.766;2023-05-23T12:32:48;102531.21;;;19.26;60.05
63281;BME280;49406;51.044;3.766;2023-05-23T12:35:26;102531.90;;;19.29;59.18
63281;BME280;49406;51.044;3.766;2023-05-23T12:38:00;102532.44;;;19.32;58.47
63281;BME280;49406;51.044;3.766;2023-05-23T12:40:36;102533.34;;;19.34;57.70
63281;BME280;49406;51.044;3.766;2023-05-23T12:43:10;102529.42;;;19.43;57.68
63281;BME280;49406;51.044;3.766;2023-05-23T12:45:45;102528.13;;;19.73;59.15
63281;BME280;49406;51.044;3.766;2023-05-23T12:48:19;102524.38;;;19.81;57.51
63281;BME280;49406;51.044;3.766;2023-05-23T12:50:54;102523.55;;;19.56;57.58
63281;BME280;49406;51.044;3.766;2023-05-23T12:53:29;102535.13;;;19.19;58.23
63281;BME280;49406;51.044;3.766;2023-05-23T12:56:04;102536.70;;;18.88;57.72
63281;BME280;49406;51.044;3.766;2023-05-23T12:58:39;102529.08;;;18.70;58.31
63281;BME280;49406;51.044;3.766;2023-05-23T13:01:13;102531.04;;;18.84;58.58
63281;BME280;49406;51.044;3.766;2023-05-23T13:03:48;102526.45;;;18.99;58.14
63281;BME280;49406;51.044;3.766;2023-05-23T13:06:22;102527.48;;;19.09;57.94
63281;BME280;49406;51.044;3.766;2023-05-23T13:08:57;102526.97;;;18.99;57.39
63281;BME280;49406;51.044;3.766;2023-05-23T13:11:32;102525.54;;;19.18;58.20
63281;BME280;49406;51.044;3.766;2023-05-23T13:14:06;102525.01;;;19.22;57.51
63281;BME280;49406;51.044;3.766;2023-05-23T13:16:41;102522.17;;;19.21;57.23
63281;BME280;49406;51.044;3.766;2023-05-23T13:19:17;102517.02;;;19.31;57.60
63281;BME280;49406;51.044;3.766;2023-05-23T13:21:51;102518.94;;;19.61;57.12
63281;BME280;49406;51.044;3.766;2023-05-23T13:24:26;102522.95;;;19.85;56.00
63281;BME280;49406;51.044;3.766;2023-05-23T13:27:00;102524.36;;;19.88;53.72
63281;BME280;49406;51.044;3.766;2023-05-23T13:29:35;102518.16;;;19.85;54.55
63281;BME280;49406;51.044;3.766;2023-05-23T13:32:10;102520.09;;;19.91;55.55
63281;BME280;49406;51.044;3.766;2023-05-23T13:34:44;102524.08;;;19.58;54.16